Time;durP1;ratioP1;P1;durP2;ratioP2;P2;SDS_P1;SDS_P2;PMS_P1;PMS_P2;Temp;Humidity;BMP_temperature;BMP_pressure;BME280_temperature;BME280_humidity;BME280_pressure;Samples;Min_cycle;Max_cycle;Signal;HPM_P1;HPM_P2
2023/06/11 00:01:08;;;;;;;1.23;0.95;;;21.90;99.90;;;;;;5015482;28;20214;-65
2023/06/11 00:03:36;;;;;;;1.25;1.15;;;21.90;99.90;;;;;;5011360;28;20218;-64
2023/06/11 00:06:06;;;;;;;1.15;0.90;;;21.90;99.90;;;;;;5011084;28;20249;-64
2023/06/11 00:08:34;;;;;;;0.85;0.80;;;21.90;99.90;;;;;;5010971;28;20210;-65
2023/06/11 00:11:03;;;;;;;1.40;1.30;;;21.90;99.90;;;;;;5011236;28;20203;-64
2023/06/11 00:13:31;;;;;;;1.33;1.20;;;21.90;99.90;;;;;;5010669;28;20215;-64
2023/06/11 00:16:00;;;;;;;0.80;0.80;;;21.90;99.90;;;;;;5010215;28;20227;-65
2023/06/11 00:18:29;;;;;;;1.33;1.23;;;21.80;99.90;;;;;;5010745;28;20677;-65
2023/06/11 00:20:58;;;;;;;1.20;1.10;;;21.80;99.90;;;;;;5011547;28;20268;-65
2023/06/11 00:23:27;;;;;;;1.10;1.00;;;21.70;99.90;;;;;;5010998;28;20218;-65
2023/06/11 00:25:55;;;;;;;1.25;1.15;;;21.70;99.90;;;;;;5010537;28;20213;-66
2023/06/11 00:28:23;;;;;;;1.00;0.82;;;21.60;99.90;;;;;;5010396;28;20207;-66
2023/06/11 00:30:51;;;;;;;1.45;0.98;;;21.60;99.90;;;;;;5002986;28;20658;-66
2023/06/11 00:33:19;;;;;;;1.50;1.13;;;21.60;99.90;;;;;;5010927;28;20674;-66
2023/06/11 00:35:46;;;;;;;1.40;1.30;;;21.60;99.90;;;;;;5010369;28;20744;-65
2023/06/11 00:38:15;;;;;;;1.60;1.40;;;21.50;99.90;;;;;;5010415;28;20705;-65
2023/06/11 00:40:48;;;;;;;0.80;0.80;;;21.50;99.90;;;;;;5010767;28;20684;-67
2023/06/11 00:43:21;;;;;;;1.23;1.13;;;21.50;99.90;;;;;;5010992;28;20247;-65
2023/06/11 00:45:50;;;;;;;1.10;1.10;;;21.50;99.90;;;;;;5009640;28;20658;-64
2023/06/11 00:48:20;;;;;;;1.52;1.33;;;21.50;99.90;;;;;;5009953;28;20238;-64
2023/06/11 00:50:49;;;;;;;2.45;1.30;;;21.50;99.90;;;;;;5010653;28;20202;-64
2023/06/11 00:53:19;;;;;;;1.38;1.27;;;21.50;99.90;;;;;;5010819;28;20225;-64
2023/06/11 00:55:48;;;;;;;1.92;1.30;;;21.40;99.90;;;;;;5009890;28;20261;-64
2023/06/11 00:58:17;;;;;;;1.35;1.02;;;21.30;99.90;;;;;;5009998;28;20310;-65
2023/06/11 01:00:49;;;;;;;1.20;1.10;;;21.30;99.90;;;;;;5009912;28;20264;-65
2023/06/11 01:03:21;;;;;;;0.88;0.70;;;21.30;99.90;;;;;;5010128;28;20822;-65
2023/06/11 01:05:54;;;;;;;0.65;0.60;;;21.30;99.90;;;;;;5009461;28;20226;-65
2023/06/11 01:08:26;;;;;;;1.05;0.95;;;21.30;99.90;;;;;;5009195;28;20233;-65
2023/06/11 01:10:59;;;;;;;0.80;0.80;;;21.20;99.90;;;;;;5006011;28;20594;-64
2023/06/11 01:13:28;;;;;;;1.35;1.25;;;21.20;99.90;;;;;;5010757;28;20233;-65
2023/06/11 01:16:03;;;;;;;1.13;1.02;;;21.10;99.90;;;;;;5008316;28;20211;-65
2023/06/11 01:18:38;;;;;;;1.20;1.10;;;21.10;99.90;;;;;;5013466;28;20235;-65
2023/06/11 01:21:12;;;;;;;0.90;0.90;;;21.00;99.90;;;;;;5014837;28;20458;-65
2023/06/11 01:23:43;;;;;;;0.95;0.90;;;21.00;99.90;;;;;;5012224;28;20209;-66
2023/06/11 01:26:34;;;;;;;2.00;1.30;;;21.00;99.90;;;;;;5012655;28;20312;-65
2023/06/11 01:29:08;;;;;;;0.80;0.70;;;21.00;99.90;;;;;;5008272;28;20206;-65
2023/06/11 01:31:40;;;;;;;1.13;1.00;;;21.00;99.90;;;;;;5019576;28;20197;-65
2023/06/11 01:34:09;;;;;;;1.02;0.93;;;21.00;99.90;;;;;;5017488;28;20211;-66
2023/06/11 01:36:39;;;;;;;1.17;0.73;;;20.90;99.90;;;;;;5009707;28;20239;-65
2023/06/11 01:39:08;;;;;;;1.35;1.25;;;20.90;99.90;;;;;;5015148;28;20206;-65
2023/06/11 01:41:36;;;;;;;0.82;0.82;;;20.80;99.90;;;;;;5008500;28;20218;-65
2023/06/11 01:44:06;;;;;;;1.40;1.30;;;20.80;99.90;;;;;;5012383;28;20209;-65
2023/06/11 01:46:33;;;;;;;1.58;1.27;;;20.80;99.90;;;;;;5013246;28;20717;-65
2023/06/11 01:49:03;;;;;;;1.70;1.60;;;20.80;99.90;;;;;;5019142;28;20232;-65
2023/06/11 01:51:31;;;;;;;0.82;0.65;;;20.70;99.90;;;;;;5012761;28;20213;-65
2023/06/11 01:54:00;;;;;;;1.10;1.00;;;20.70;99.90;;;;;;5014688;28;20473;-66
2023/06/11 01:56:29;;;;;;;0.90;0.90;;;20.60;99.90;;;;;;5014226;28;20237;-67
2023/06/11 01:58:57;;;;;;;1.67;1.48;;;20.60;99.90;;;;;;5013928;28;20229;-65
2023/06/11 02:01:28;;;;;;;1.48;1.38;;;20.60;99.90;;;;;;5014433;28;20768;-65
2023/06/11 02:03:57;;;;;;;1.00;1.00;;;20.60;99.90;;;;;;5006579;28;20285;-65
2023/06/11 02:06:25;;;;;;;1.27;1.17;;;20.50;99.90;;;;;;5006761;28;20243;-65
2023/06/11 02:08:53;;;;;;;1.20;1.00;;;20.50;99.90;;;;;;5011759;28;20206;-65
2023/06/11 02:11:20;;;;;;;1.15;1.05;;;20.50;99.90;;;;;;5014434;28;20209;-65
2023/06/11 02:13:48;;;;;;;0.77;0.75;;;20.40;99.90;;;;;;5007391;28;20226;-65
2023/06/11 02:16:16;;;;;;;1.30;1.10;;;20.40;99.90;;;;;;5010527;28;20248;-65
2023/06/11 02:18:45;;;;;;;1.30;0.88;;;20.40;99.90;;;;;;5016798;28;20222;-65
2023/06/11 02:21:13;;;;;;;1.35;1.25;;;20.30;99.90;;;;;;5010446;28;20264;-65
2023/06/11 02:23:41;;;;;;;1.42;1.10;;;20.30;99.90;;;;;;5015365;28;20221;-65
2023/06/11 02:26:09;;;;;;;1.25;1.13;;;20.30;99.90;;;;;;5007872;28;20244;-66
2023/06/11 02:28:37;;;;;;;1.20;1.10;;;20.30;99.90;;;;;;5009080;28;20207;-65
2023/06/11 02:31:05;;;;;;;1.17;0.95;;;20.30;99.90;;;;;;5007418;28;20203;-65
2023/06/11 02:33:33;;;;;;;1.80;1.20;;;20.20;99.90;;;;;;5016326;28;20218;-67
2023/06/11 02:36:02;;;;;;;1.35;1.25;;;20.30;99.90;;;;;;5010855;28;20206;-65
2023/06/11 02:38:30;;;;;;;1.00;1.00;;;20.20;99.90;;;;;;5013576;28;20656;-65
2023/06/11 02:40:58;;;;;;;1.15;1.05;;;20.20;99.90;;;;;;5010397;28;20260;-66
2023/06/11 02:43:26;;;;;;;1.60;1.23;;;20.20;99.90;;;;;;5013228;28;20646;-66
2023/06/11 02:45:53;;;;;;;1.60;1.23;;;20.10;99.90;;;;;;5013774;28;20199;-65
2023/06/11 02:48:21;;;;;;;0.70;0.68;;;20.20;99.90;;;;;;5014491;28;20787;-66
2023/06/11 02:50:49;;;;;;;1.20;0.90;;;20.20;99.90;;;;;;5018360;28;20224;-65
2023/06/11 02:53:19;;;;;;;1.13;0.98;;;20.10;99.90;;;;;;5008623;28;20210;-64
2023/06/11 02:55:47;;;;;;;1.42;1.30;;;20.20;99.90;;;;;;5005994;28;20210;-65
2023/06/11 02:58:15;;;;;;;1.58;1.05;;;20.10;99.90;;;;;;5011641;28;20616;-65
2023/06/11 03:00:43;;;;;;;0.85;0.70;;;20.10;99.90;;;;;;5007020;28;20718;-64
2023/06/11 03:03:10;;;;;;;0.93;0.80;;;20.10;99.90;;;;;;5012205;28;20211;-65
2023/06/11 03:05:39;;;;;;;2.00;1.20;;;20.00;99.90;;;;;;5012164;28;20634;-65
2023/06/11 03:08:07;;;;;;;2.85;1.10;;;20.00;99.90;;;;;;5005150;28;20727;-65
2023/06/11 03:10:36;;;;;;;0.95;0.90;;;20.00;99.90;;;;;;5009001;28;20261;-65
2023/06/11 03:13:04;;;;;;;1.35;1.00;;;19.90;99.90;;;;;;5015616;28;20211;-65
2023/06/11 03:15:32;;;;;;;1.40;1.30;;;20.00;99.90;;;;;;5015213;28;20681;-65
2023/06/11 03:17:59;;;;;;;1.30;1.20;;;19.90;99.90;;;;;;5008689;28;20631;-65
2023/06/11 03:20:28;;;;;;;1.00;0.95;;;19.90;99.90;;;;;;5012746;28;20927;-65
2023/06/11 03:22:56;;;;;;;1.70;1.17;;;19.90;99.90;;;;;;5018257;28;20201;-65
2023/06/11 03:25:23;;;;;;;1.25;1.15;;;19.90;99.90;;;;;;5011848;28;20261;-65
2023/06/11 03:27:53;;;;;;;1.20;1.00;;;19.80;99.90;;;;;;5014886;28;20226;-65
2023/06/11 03:30:21;;;;;;;1.20;1.10;;;19.80;99.90;;;;;;5014801;28;20211;-65
2023/06/11 03:32:49;;;;;;;1.83;1.17;;;19.90;99.90;;;;;;5014480;28;20200;-66
2023/06/11 03:35:17;;;;;;;0.88;0.88;;;19.90;99.90;;;;;;5011624;28;20209;-65
2023/06/11 03:37:44;;;;;;;0.80;0.70;;;19.90;99.90;;;;;;5013744;28;20271;-64
2023/06/11 03:40:13;;;;;;;1.00;0.93;;;19.80;99.90;;;;;;5007922;28;20214;-65
2023/06/11 03:42:41;;;;;;;1.33;1.23;;;19.70;99.90;;;;;;5014980;28;20210;-65
2023/06/11 03:45:10;;;;;;;1.55;1.45;;;19.70;99.90;;;;;;5005261;28;20217;-66
2023/06/11 03:47:39;;;;;;;1.17;1.08;;;19.60;99.90;;;;;;5004865;28;20721;-66
2023/06/11 03:50:07;;;;;;;1.40;0.98;;;19.60;99.90;;;;;;5019261;28;20280;-64
2023/06/11 03:52:35;;;;;;;1.25;1.15;;;19.60;99.90;;;;;;5009544;28;20695;-64
2023/06/11 03:55:03;;;;;;;1.25;1.15;;;19.50;99.90;;;;;;5007217;28;20207;-64
2023/06/11 03:57:31;;;;;;;1.23;1.13;;;19.50;99.90;;;;;;5012835;28;20580;-65
2023/06/11 03:59:59;;;;;;;1.27;1.17;;;19.40;99.90;;;;;;5013054;28;20228;-64
2023/06/11 04:02:28;;;;;;;1.20;1.10;;;19.40;99.90;;;;;;5017715;28;20210;-64
2023/06/11 04:04:56;;;;;;;0.90;0.80;;;19.40;99.90;;;;;;5007968;28;20217;-66
2023/06/11 04:07:24;;;;;;;0.88;0.88;;;19.50;99.90;;;;;;5014780;28;20286;-64
2023/06/11 04:09:52;;;;;;;1.25;1.15;;;19.40;99.90;;;;;;5020388;28;20198;-64
2023/06/11 04:12:20;;;;;;;0.98;0.98;;;19.50;99.90;;;;;;5017837;28;20205;-63
2023/06/11 04:14:48;;;;;;;0.80;0.80;;;19.50;99.90;;;;;;5016103;28;20216;-63
2023/06/11 04:17:16;;;;;;;0.98;0.93;;;19.60;99.90;;;;;;5015672;28;20323;-65
2023/06/11 04:19:45;;;;;;;3.33;1.35;;;19.70;99.90;;;;;;5004274;28;20301;-63
2023/06/11 04:22:13;;;;;;;1.73;1.63;;;19.70;99.90;;;;;;5010497;28;20297;-62
2023/06/11 04:24:41;;;;;;;1.35;0.82;;;19.70;99.90;;;;;;5007476;28;20564;-63
2023/06/11 04:27:11;;;;;;;1.50;1.30;;;19.70;99.90;;;;;;5010100;28;20221;-63
2023/06/11 04:29:39;;;;;;;1.05;0.93;;;19.70;99.90;;;;;;5010302;28;20293;-63
2023/06/11 04:32:08;;;;;;;1.23;1.08;;;19.70;99.90;;;;;;5010158;28;20221;-63
2023/06/11 04:34:37;;;;;;;1.67;1.25;;;19.70;99.90;;;;;;5010072;28;20210;-64
2023/06/11 04:37:09;;;;;;;1.13;1.02;;;19.70;99.90;;;;;;5008457;28;20346;-63
2023/06/11 04:39:37;;;;;;;1.08;1.00;;;19.80;99.90;;;;;;5010448;28;20627;-62
2023/06/11 04:42:05;;;;;;;1.30;1.20;;;19.80;99.90;;;;;;5003811;28;20198;-63
2023/06/11 04:44:36;;;;;;;1.38;1.27;;;19.80;99.90;;;;;;5010150;28;20206;-62
2023/06/11 04:47:04;;;;;;;1.00;0.88;;;19.90;99.90;;;;;;5010035;28;20324;-64
2023/06/11 04:49:32;;;;;;;1.08;1.00;;;19.90;99.90;;;;;;5010578;28;20240;-63
2023/06/11 04:52:02;;;;;;;1.58;1.00;;;19.90;99.90;;;;;;5009884;28;20609;-63
2023/06/11 04:54:31;;;;;;;1.10;1.00;;;19.90;99.90;;;;;;5009935;28;20209;-63
2023/06/11 04:56:59;;;;;;;1.35;1.25;;;20.00;99.90;;;;;;5010515;28;20822;-62
2023/06/11 04:59:27;;;;;;;1.40;1.30;;;20.10;99.90;;;;;;5011645;28;20222;-63
2023/06/11 05:01:55;;;;;;;4.40;1.35;;;20.10;99.90;;;;;;5014215;28;20209;-63
2023/06/11 05:04:23;;;;;;;1.60;1.38;;;20.10;99.90;;;;;;5014103;28;20206;-64
2023/06/11 05:06:52;;;;;;;1.10;1.00;;;20.20;99.90;;;;;;5013746;28;20640;-63
2023/06/11 05:09:20;;;;;;;1.13;1.02;;;20.20;99.90;;;;;;5014444;28;20207;-63
2023/06/11 05:11:49;;;;;;;1.10;1.00;;;20.30;99.90;;;;;;5011567;28;20217;-63
2023/06/11 05:14:17;;;;;;;1.40;1.15;;;20.30;99.90;;;;;;5015178;28;20221;-62
2023/06/11 05:16:45;;;;;;;1.20;1.10;;;20.40;99.90;;;;;;5018151;28;20237;-63
2023/06/11 05:19:13;;;;;;;0.80;0.73;;;20.50;99.90;;;;;;5019383;28;20277;-63
2023/06/11 05:21:41;;;;;;;1.23;0.80;;;20.50;99.90;;;;;;5016080;28;20206;-63
2023/06/11 05:24:18;;;;;;;0.90;0.80;;;20.60;99.90;;;;;;5012633;28;20219;-64
2023/06/11 05:26:48;;;;;;;1.02;0.93;;;20.70;99.90;;;;;;5016471;28;20255;-62
2023/06/11 05:29:16;;;;;;;1.10;1.00;;;20.70;99.90;;;;;;5013127;28;20221;-63
2023/06/11 05:31:44;;;;;;;1.13;0.95;;;20.80;99.90;;;;;;5018553;28;20256;-63
2023/06/11 05:34:12;;;;;;;0.90;0.90;;;20.90;99.90;;;;;;5014174;28;20619;-64
2023/06/11 05:36:42;;;;;;;1.38;1.27;;;20.90;99.90;;;;;;5013574;28;20589;-63
2023/06/11 05:39:10;;;;;;;1.27;0.90;;;21.00;99.90;;;;;;5004630;28;20222;-62
2023/06/11 05:41:39;;;;;;;1.10;1.00;;;21.20;99.90;;;;;;5014071;28;20209;-65
2023/06/11 05:44:09;;;;;;;1.13;1.05;;;21.30;99.90;;;;;;5019859;28;20677;-63
2023/06/11 05:46:38;;;;;;;1.30;1.20;;;21.40;99.90;;;;;;5016186;28;20234;-63
2023/06/11 05:49:07;;;;;;;1.38;0.90;;;21.40;99.90;;;;;;5019651;28;20219;-64
2023/06/11 05:51:35;;;;;;;1.00;0.90;;;21.50;99.90;;;;;;5029832;28;20615;-64
2023/06/11 05:54:05;;;;;;;1.00;1.00;;;21.60;99.90;;;;;;5021587;28;20225;-63
2023/06/11 05:56:33;;;;;;;1.38;1.13;;;21.60;99.90;;;;;;5009090;28;20222;-63
2023/06/11 05:59:02;;;;;;;1.00;0.82;;;21.70;99.90;;;;;;5013529;28;20261;-63
2023/06/11 06:01:34;;;;;;;1.08;1.02;;;21.70;99.90;;;;;;5015692;28;20302;-65
2023/06/11 06:04:05;;;;;;;1.27;1.17;;;21.80;99.90;;;;;;5016168;28;20243;-63
2023/06/11 06:06:34;;;;;;;1.30;1.20;;;21.90;99.90;;;;;;5016450;28;20759;-63
2023/06/11 06:09:04;;;;;;;1.90;1.60;;;21.90;99.90;;;;;;5012742;28;20289;-63
2023/06/11 06:11:32;;;;;;;1.05;0.75;;;22.00;99.90;;;;;;5014354;28;20199;-63
2023/06/11 06:14:02;;;;;;;1.40;1.30;;;22.00;99.90;;;;;;5017741;28;20213;-63
2023/06/11 06:16:32;;;;;;;1.05;0.95;;;22.00;99.90;;;;;;5016721;28;20218;-64
2023/06/11 06:19:01;;;;;;;2.00;0.90;;;22.20;99.90;;;;;;5016594;28;20250;-63
2023/06/11 06:21:30;;;;;;;1.13;1.02;;;22.30;99.90;;;;;;5021607;28;20255;-63
2023/06/11 06:23:59;;;;;;;1.30;1.20;;;22.40;99.90;;;;;;5013648;28;20557;-63
2023/06/11 06:26:28;;;;;;;1.45;1.30;;;22.50;99.90;;;;;;5015149;28;20311;-63
2023/06/11 06:28:57;;;;;;;1.23;1.02;;;22.60;99.90;;;;;;5016918;28;20198;-63
2023/06/11 06:31:27;;;;;;;1.30;1.20;;;22.70;99.90;;;;;;5010653;28;20282;-62
2023/06/11 06:33:57;;;;;;;1.77;1.10;;;22.70;99.90;;;;;;5015904;28;20565;-63
2023/06/11 06:36:26;;;;;;;1.25;1.15;;;22.90;99.90;;;;;;5014848;28;20603;-63
2023/06/11 06:38:55;;;;;;;1.30;1.20;;;22.90;99.90;;;;;;5011537;28;20211;-63
2023/06/11 06:41:23;;;;;;;0.90;0.85;;;23.00;99.90;;;;;;5019036;28;20219;-63
2023/06/11 06:43:52;;;;;;;0.80;0.80;;;23.10;99.90;;;;;;5015146;28;20214;-63
2023/06/11 06:46:21;;;;;;;1.13;0.95;;;23.20;99.90;;;;;;5011844;28;20293;-64
2023/06/11 06:48:51;;;;;;;1.67;1.17;;;23.30;99.90;;;;;;5015078;28;20210;-63
2023/06/11 06:51:21;;;;;;;0.82;0.82;;;23.30;99.90;;;;;;5008864;28;20207;-64
2023/06/11 06:53:50;;;;;;;1.17;0.98;;;23.40;99.90;;;;;;5008948;28;20200;-63
2023/06/11 06:56:19;;;;;;;2.97;0.70;;;23.40;99.90;;;;;;5010877;28;20223;-63
2023/06/11 06:58:48;;;;;;;1.25;1.00;;;23.60;99.90;;;;;;5012633;28;20218;-63
2023/06/11 07:01:17;;;;;;;0.85;0.85;;;23.60;99.90;;;;;;5017397;28;20642;-61
2023/06/11 07:03:45;;;;;;;1.42;1.15;;;23.70;99.90;;;;;;5020770;28;20219;-61
2023/06/11 07:06:14;;;;;;;0.98;0.85;;;23.70;99.90;;;;;;5016432;28;20716;-61
2023/06/11 07:08:44;;;;;;;1.25;1.15;;;23.90;99.90;;;;;;5019322;28;21012;-62
2023/06/11 07:11:15;;;;;;;1.35;1.25;;;24.00;99.90;;;;;;5024139;28;20208;-62
2023/06/11 07:13:43;;;;;;;1.20;1.10;;;24.00;99.90;;;;;;5016667;28;20205;-62
2023/06/11 07:16:11;;;;;;;1.13;1.13;;;24.10;99.90;;;;;;5018662;28;20262;-61
2023/06/11 07:18:40;;;;;;;0.88;0.80;;;24.20;99.90;;;;;;5017678;28;20211;-62
2023/06/11 07:21:09;;;;;;;1.65;1.10;;;24.30;99.90;;;;;;5018142;28;20703;-62
2023/06/11 07:23:37;;;;;;;0.98;0.80;;;24.40;99.90;;;;;;5018466;28;20203;-62
2023/06/11 07:26:06;;;;;;;1.75;1.65;;;24.60;99.90;;;;;;5018627;28;20214;-62
2023/06/11 07:28:34;;;;;;;0.80;0.70;;;24.60;99.90;;;;;;5018658;28;20625;-62
2023/06/11 07:31:02;;;;;;;1.20;1.17;;;24.70;99.90;;;;;;5017858;28;20216;-62
2023/06/11 07:33:30;;;;;;;1.15;1.05;;;24.60;99.90;;;;;;5013644;28;20307;-62
2023/06/11 07:35:59;;;;;;;1.40;1.30;;;24.80;99.90;;;;;;5016125;28;20632;-62
2023/06/11 07:38:27;;;;;;;1.55;1.30;;;24.90;99.90;;;;;;5022155;28;20215;-62
2023/06/11 07:40:55;;;;;;;0.93;0.82;;;25.00;99.90;;;;;;5024172;28;20636;-62
2023/06/11 07:43:24;;;;;;;1.25;0.90;;;24.90;99.90;;;;;;5015188;28;20208;-62
2023/06/11 07:45:52;;;;;;;1.05;0.95;;;24.90;99.90;;;;;;5017183;28;20216;-62
2023/06/11 07:48:20;;;;;;;1.63;1.52;;;25.00;99.90;;;;;;5014549;28;20245;-62
2023/06/11 07:50:50;;;;;;;1.35;1.25;;;25.10;99.90;;;;;;5015739;28;20779;-62
2023/06/11 07:53:18;;;;;;;1.40;1.10;;;25.10;99.90;;;;;;5015752;28;20283;-62
2023/06/11 07:55:47;;;;;;;1.10;1.00;;;25.30;99.90;;;;;;5015996;28;20218;-62
2023/06/11 07:58:15;;;;;;;1.20;1.10;;;25.40;99.90;;;;;;5017655;28;20604;-62
2023/06/11 08:00:44;;;;;;;0.95;0.95;;;25.40;99.90;;;;;;5023270;28;20220;-62
2023/06/11 08:03:12;;;;;;;1.38;1.27;;;25.50;99.90;;;;;;5019696;28;20215;-62
2023/06/11 08:05:40;;;;;;;0.80;0.80;;;25.50;99.90;;;;;;5014108;28;20699;-62
2023/06/11 08:08:08;;;;;;;1.15;1.08;;;25.60;99.90;;;;;;5019901;28;20255;-62
2023/06/11 08:10:37;;;;;;;1.33;1.23;;;25.70;99.90;;;;;;5017023;28;20200;-61
2023/06/11 08:13:05;;;;;;;1.40;1.30;;;25.80;99.90;;;;;;5017401;28;20215;-62
2023/06/11 08:15:33;;;;;;;0.93;0.82;;;25.80;99.90;;;;;;5014708;28;21104;-62
2023/06/11 08:18:02;;;;;;;0.73;0.73;;;26.00;99.90;;;;;;5017422;28;20750;-62
2023/06/11 08:20:30;;;;;;;1.17;1.08;;;26.20;99.90;;;;;;5013485;28;20220;-61
2023/06/11 08:22:58;;;;;;;1.20;1.05;;;26.20;99.90;;;;;;5016896;28;20200;-62
2023/06/11 08:25:26;;;;;;;0.98;0.88;;;26.20;99.90;;;;;;5014164;28;20210;-62
2023/06/11 08:27:55;;;;;;;1.60;1.48;;;26.20;99.90;;;;;;5016860;28;20278;-63
2023/06/11 08:30:23;;;;;;;0.90;0.90;;;26.50;99.90;;;;;;5019679;28;20220;-62
2023/06/11 08:32:51;;;;;;;1.00;0.80;;;26.70;99.90;;;;;;5016949;28;20728;-62
2023/06/11 08:35:23;;;;;;;0.95;0.80;;;26.70;99.90;;;;;;5017151;28;20217;-62
2023/06/11 08:37:51;;;;;;;1.13;0.90;;;26.80;99.90;;;;;;5022232;28;20358;-62
2023/06/11 08:40:21;;;;;;;1.27;1.17;;;26.80;99.90;;;;;;5014335;28;20607;-62
2023/06/11 08:42:50;;;;;;;0.80;0.65;;;27.10;99.90;;;;;;5019546;28;20254;-62
2023/06/11 08:45:18;;;;;;;1.00;0.90;;;27.10;99.90;;;;;;5012480;28;20232;-62
2023/06/11 08:47:49;;;;;;;1.60;1.50;;;27.20;99.90;;;;;;5010065;28;20596;-62
2023/06/11 08:50:20;;;;;;;1.35;1.25;;;27.40;99.90;;;;;;5013297;28;20213;-62
2023/06/11 08:52:51;;;;;;;1.30;1.20;;;27.70;99.90;;;;;;5014020;28;20212;-62
2023/06/11 08:55:19;;;;;;;1.13;1.10;;;27.90;99.60;;;;;;5017712;28;20225;-62
2023/06/11 08:57:50;;;;;;;0.80;0.80;;;28.00;99.90;;;;;;5019557;28;20226;-62
2023/06/11 09:00:19;;;;;;;2.03;1.45;;;27.90;98.30;;;;;;5013975;28;20244;-62
2023/06/11 09:02:47;;;;;;;1.23;1.13;;;28.00;99.20;;;;;;5015188;28;20307;-62
2023/06/11 09:05:15;;;;;;;1.00;0.85;;;28.10;97.90;;;;;;5015380;28;20303;-62
2023/06/11 09:07:50;;;;;;;1.10;1.00;;;28.20;97.80;;;;;;5016804;28;20312;-62
2023/06/11 09:10:19;;;;;;;1.40;1.00;;;28.40;98.50;;;;;;5007688;28;20219;-62
2023/06/11 09:12:47;;;;;;;0.95;0.93;;;28.60;98.30;;;;;;5014359;28;20203;-62
2023/06/11 09:15:15;;;;;;;0.95;0.95;;;28.80;96.50;;;;;;5014763;28;20222;-62
2023/06/11 09:17:46;;;;;;;1.10;1.00;;;28.80;94.90;;;;;;5013305;28;20229;-62
2023/06/11 09:20:15;;;;;;;0.75;0.75;;;28.90;95.30;;;;;;5010103;28;20228;-62
2023/06/11 09:22:45;;;;;;;0.90;0.80;;;29.20;95.70;;;;;;5008739;28;20218;-62
2023/06/11 09:25:16;;;;;;;0.77;0.77;;;29.30;95.20;;;;;;5016092;28;20273;-62
2023/06/11 09:27:46;;;;;;;1.20;1.00;;;29.30;94.50;;;;;;5019721;28;20308;-62
2023/06/11 09:30:16;;;;;;;0.90;0.90;;;29.00;94.70;;;;;;5012069;28;20283;-62
2023/06/11 09:32:46;;;;;;;0.85;0.85;;;29.20;95.60;;;;;;4995724;28;20214;-62
2023/06/11 09:35:15;;;;;;;1.02;0.93;;;29.30;93.90;;;;;;5009715;28;20221;-62
2023/06/11 09:37:50;;;;;;;1.15;1.05;;;29.10;93.80;;;;;;5015837;28;20794;-62
2023/06/11 09:40:23;;;;;;;0.80;0.80;;;29.20;93.20;;;;;;5010027;28;20206;-62
2023/06/11 09:42:51;;;;;;;1.42;1.33;;;29.30;93.30;;;;;;5004334;28;20258;-62
2023/06/11 09:45:21;;;;;;;1.00;0.88;;;29.40;92.50;;;;;;5013447;28;20255;-63
2023/06/11 09:47:51;;;;;;;1.20;1.10;;;29.70;93.20;;;;;;5051391;22;20297;-71
2023/06/11 09:50:21;;;;;;;0.77;0.77;;;29.70;94.70;;;;;;5049536;28;20566;-70
2023/06/11 09:52:51;;;;;;;0.60;0.60;;;29.70;92.40;;;;;;5053402;28;20206;-71
2023/06/11 09:55:25;;;;;;;0.80;0.80;;;29.70;92.90;;;;;;5060630;28;20278;-69
2023/06/11 09:57:54;;;;;;;1.13;1.00;;;29.80;92.00;;;;;;5061700;28;20251;-69
2023/06/11 10:00:22;;;;;;;1.38;1.27;;;29.80;92.60;;;;;;5052280;28;20203;-71
2023/06/11 10:02:50;;;;;;;0.80;0.80;;;30.00;91.60;;;;;;5059764;28;20238;-70
2023/06/11 10:05:19;;;;;;;1.77;0.95;;;30.20;92.20;;;;;;5060990;28;20335;-71
2023/06/11 10:07:49;;;;;;;1.40;1.10;;;30.60;92.10;;;;;;5054170;28;20225;-71
2023/06/11 10:10:22;;;;;;;1.10;1.00;;;30.90;92.20;;;;;;5057562;28;20212;-71
2023/06/11 10:12:51;;;;;;;0.97;0.97;;;31.30;92.00;;;;;;5041068;28;20201;-72
2023/06/11 10:15:19;;;;;;;1.83;1.30;;;31.50;91.30;;;;;;5043801;28;20636;-72
2023/06/11 10:17:49;;;;;;;1.03;0.93;;;31.50;90.40;;;;;;5045460;28;20675;-72
2023/06/11 10:20:19;;;;;;;1.10;0.87;;;31.80;90.50;;;;;;5040127;28;21543;-71
2023/06/11 10:22:47;;;;;;;0.90;0.90;;;31.90;90.30;;;;;;5039038;28;20653;-70
2023/06/11 10:25:16;;;;;;;1.00;0.90;;;31.80;88.90;;;;;;5040004;28;20648;-71
2023/06/11 10:27:47;;;;;;;1.20;1.10;;;32.00;86.50;;;;;;5042378;28;21076;-70
2023/06/11 10:30:25;;;;;;;0.90;0.90;;;32.10;86.50;;;;;;5033175;28;20642;-71
2023/06/11 10:32:53;;;;;;;0.90;0.80;;;31.90;84.20;;;;;;5042555;28;20656;-71
2023/06/11 10:35:23;;;;;;;1.33;1.13;;;31.70;82.70;;;;;;5045707;28;20725;-72
2023/06/11 10:38:01;;;;;;;0.97;0.87;;;31.30;81.40;;;;;;5050524;28;20736;-71
2023/06/11 10:40:34;;;;;;;1.20;1.10;;;31.00;80.90;;;;;;5043492;28;20722;-72
2023/06/11 10:43:13;;;;;;;1.00;0.90;;;30.80;81.00;;;;;;5048064;28;20729;-71
2023/06/11 10:45:41;;;;;;;0.90;0.80;;;30.60;79.20;;;;;;5035795;28;21025;-71
2023/06/11 10:48:11;;;;;;;1.08;0.98;;;30.20;80.50;;;;;;5039178;28;20252;-71
2023/06/11 10:50:39;;;;;;;1.10;1.00;;;29.70;80.60;;;;;;5034632;28;20589;-73
2023/06/11 10:53:13;;;;;;;1.30;1.10;;;29.80;81.90;;;;;;5036577;28;20215;-72
2023/06/11 10:55:47;;;;;;;1.13;1.02;;;29.90;80.90;;;;;;5036905;28;20212;-72
2023/06/11 10:58:28;;;;;;;1.10;0.75;;;30.30;81.20;;;;;;5038564;28;20226;-72
2023/06/11 11:00:58;;;;;;;1.23;1.10;;;30.50;79.30;;;;;;5041865;28;20204;-73
2023/06/11 11:03:30;;;;;;;1.20;1.10;;;30.10;78.70;;;;;;5036434;28;20224;-72
2023/06/11 11:05:58;;;;;;;0.80;0.68;;;29.40;79.20;;;;;;5035041;28;20218;-72
2023/06/11 11:08:26;;;;;;;1.80;1.15;;;29.40;78.50;;;;;;5037713;28;20232;-72
2023/06/11 11:10:55;;;;;;;0.73;0.73;;;29.80;79.30;;;;;;5036554;28;21002;-71
2023/06/11 11:13:25;;;;;;;1.00;0.90;;;30.20;77.90;;;;;;5039132;28;20857;-70
2023/06/11 11:15:53;;;;;;;0.93;0.93;;;30.80;78.00;;;;;;5037175;28;20213;-72
2023/06/11 11:18:20;;;;;;;0.70;0.68;;;31.20;78.50;;;;;;5037638;28;20678;-72
2023/06/11 11:20:48;;;;;;;0.87;0.87;;;31.50;80.30;;;;;;5036526;28;20771;-72
2023/06/11 11:23:16;;;;;;;0.87;0.80;;;31.70;76.50;;;;;;5039850;28;20677;-72
2023/06/11 11:25:45;;;;;;;1.17;1.07;;;31.80;77.50;;;;;;5036888;28;20627;-71
2023/06/11 11:28:13;;;;;;;1.10;0.80;;;31.50;73.60;;;;;;5037984;28;20671;-72
2023/06/11 11:30:42;;;;;;;1.43;1.33;;;31.00;74.20;;;;;;5033812;28;21185;-72
2023/06/11 11:33:12;;;;;;;0.82;0.82;;;31.00;73.20;;;;;;5037492;28;20696;-73
2023/06/11 11:35:47;;;;;;;0.67;0.63;;;31.10;74.10;;;;;;5034553;28;20205;-72
2023/06/11 11:38:15;;;;;;;1.13;0.70;;;31.20;73.40;;;;;;5041029;28;20786;-72
2023/06/11 11:40:43;;;;;;;0.90;0.90;;;31.40;74.10;;;;;;5033529;28;21256;-73
2023/06/11 11:43:13;;;;;;;0.80;0.80;;;31.70;72.40;;;;;;5057485;28;20660;-72
2023/06/11 11:45:46;;;;;;;0.70;0.60;;;32.20;73.90;;;;;;5033249;28;20625;-72
2023/06/11 11:48:16;;;;;;;0.70;0.70;;;32.80;72.30;;;;;;5040321;28;20693;-73
2023/06/11 11:50:49;;;;;;;0.80;0.73;;;32.60;71.00;;;;;;5044865;28;20687;-72
2023/06/11 11:53:18;;;;;;;1.50;1.40;;;32.40;72.60;;;;;;5041386;28;20721;-72
2023/06/11 11:55:49;;;;;;;2.10;1.17;;;32.60;70.50;;;;;;5046576;28;20610;-72
2023/06/11 11:58:37;;;;;;;1.10;0.80;;;32.90;70.90;;;;;;5046309;28;20708;-73
2023/06/11 12:01:08;;;;;;;0.83;0.77;;;33.20;69.90;;;;;;5049917;28;20733;-72
2023/06/11 12:03:37;;;;;;;0.70;0.70;;;33.20;68.60;;;;;;5053886;28;21085;-72
2023/06/11 12:06:07;;;;;;;1.07;0.97;;;33.20;67.10;;;;;;5047621;28;20621;-73
2023/06/11 12:08:38;;;;;;;0.83;0.80;;;33.30;66.70;;;;;;5049370;28;20681;-71
2023/06/11 12:11:06;;;;;;;1.90;1.33;;;33.30;68.40;;;;;;5054620;28;20643;-70
2023/06/11 12:13:35;;;;;;;1.00;0.93;;;33.00;66.50;;;;;;5036050;28;21203;-73
2023/06/11 12:16:04;;;;;;;0.70;0.60;;;32.80;66.80;;;;;;5039300;28;20634;-72
2023/06/11 12:18:34;;;;;;;0.73;0.73;;;33.10;67.60;;;;;;5042077;28;21172;-74
2023/06/11 12:21:02;;;;;;;0.70;0.60;;;33.00;66.80;;;;;;5038488;28;21024;-73
2023/06/11 12:23:30;;;;;;;0.87;0.87;;;32.90;68.00;;;;;;5041946;28;20976;-73
2023/06/11 12:25:59;;;;;;;1.43;1.33;;;33.10;67.20;;;;;;5040271;28;20652;-73
2023/06/11 12:28:28;;;;;;;1.03;1.00;;;33.40;66.40;;;;;;5033935;28;21570;-73
2023/06/11 12:30:56;;;;;;;0.80;0.80;;;33.60;68.40;;;;;;5032180;28;20630;-73
2023/06/11 12:33:24;;;;;;;2.70;1.10;;;33.50;66.20;;;;;;5046804;28;20651;-73
2023/06/11 12:35:53;;;;;;;1.10;1.00;;;33.40;66.60;;;;;;5032219;28;20626;-73
2023/06/11 12:38:22;;;;;;;1.00;0.90;;;33.60;67.50;;;;;;5044115;28;20661;-73
2023/06/11 12:40:50;;;;;;;1.10;0.97;;;33.90;68.90;;;;;;5032419;28;21017;-74
2023/06/11 12:43:18;;;;;;;1.30;0.97;;;34.00;67.10;;;;;;5043435;28;20650;-72
2023/06/11 12:45:46;;;;;;;1.67;1.50;;;34.40;67.20;;;;;;5038705;28;20637;-74
2023/06/11 12:48:14;;;;;;;0.70;0.60;;;34.10;65.40;;;;;;5035396;28;20688;-74
2023/06/11 12:50:42;;;;;;;0.80;0.70;;;34.30;65.50;;;;;;5034730;28;20633;-73
2023/06/11 12:53:11;;;;;;;1.00;1.00;;;34.10;65.10;;;;;;5038039;28;20630;-74
2023/06/11 12:55:39;;;;;;;0.90;0.80;;;34.20;66.60;;;;;;5040481;28;20633;-73
2023/06/11 12:58:07;;;;;;;0.80;0.70;;;34.80;64.90;;;;;;5040530;28;20657;-74